Time;durP1;ratioP1;P1;durP2;ratioP2;P2;SDS_P1;SDS_P2;PMS_P1;PMS_P2;Temp;Humidity;BMP_temperature;BMP_pressure;BME280_temperature;BME280_humidity;BME280_pressure;Samples;Min_cycle;Max_cycle;Signal;HPM_P1;HPM_P2
2022/06/20 00:00:48;;;;;;;6.35;1.98;;;17.70;97.00;;;;;;5031837;28;20018;-75
2022/06/20 00:03:25;;;;;;;8.82;2.35;;;17.30;96.80;;;;;;5030694;28;20120;-75
2022/06/20 00:05:51;;;;;;;3.60;1.58;;;17.10;97.80;;;;;;5031313;28;20047;-75
2022/06/20 00:08:17;;;;;;;4.63;1.70;;;17.10;97.70;;;;;;5031532;28;20036;-75
2022/06/20 00:10:44;;;;;;;5.00;1.77;;;17.20;97.40;;;;;;5031393;28;20121;-75
2022/06/20 00:13:18;;;;;;;6.50;2.20;;;17.20;97.30;;;;;;5030250;28;20455;-75
2022/06/20 00:15:46;;;;;;;5.50;1.77;;;17.10;97.70;;;;;;5031626;28;20494;-74
2022/06/20 00:18:11;;;;;;;7.22;1.58;;;17.30;97.50;;;;;;5030036;28;20033;-74
2022/06/20 00:20:37;;;;;;;5.07;1.80;;;17.20;97.80;;;;;;5030873;28;20029;-76
2022/06/20 00:23:03;;;;;;;7.65;2.10;;;17.20;97.70;;;;;;5030009;28;20523;-73
2022/06/20 00:25:30;;;;;;;5.45;1.95;;;17.20;97.60;;;;;;5030887;28;20128;-73
2022/06/20 00:27:56;;;;;;;8.82;2.50;;;17.20;97.50;;;;;;5030286;28;20021;-74
2022/06/20 00:30:22;;;;;;;3.60;1.83;;;17.00;97.80;;;;;;5030764;28;20030;-74
2022/06/20 00:32:49;;;;;;;5.85;1.88;;;17.20;98.10;;;;;;5030342;28;20064;-74
2022/06/20 00:35:14;;;;;;;3.03;1.73;;;17.20;97.90;;;;;;5030828;28;20025;-74
2022/06/20 00:37:40;;;;;;;5.75;2.00;;;17.20;97.50;;;;;;5029567;28;20422;-74
2022/06/20 00:40:43;;;;;;;5.45;1.65;;;17.30;97.40;;;;;;5030713;28;20029;-74
2022/06/20 00:43:13;;;;;;;5.05;1.60;;;17.30;97.50;;;;;;5030622;28;20029;-74
2022/06/20 00:45:43;;;;;;;7.70;2.20;;;17.30;97.30;;;;;;5031019;28;20037;-73
2022/06/20 00:48:18;;;;;;;3.75;1.70;;;17.30;97.50;;;;;;5030904;28;20060;-72
2022/06/20 00:50:46;;;;;;;6.35;2.10;;;17.20;97.50;;;;;;5030633;28;20545;-73
2022/06/20 00:53:18;;;;;;;;;;;17.20;97.70;;;;;;5029846;28;20087;-73
2022/06/20 00:55:53;;;;;;;5.90;1.83;;;17.20;97.70;;;;;;5030320;28;20005;-73
2022/06/20 00:58:30;;;;;;;4.75;1.88;;;17.20;97.70;;;;;;5030404;28;20049;-73
2022/06/20 01:00:58;;;;;;;7.13;1.77;;;17.20;97.70;;;;;;5031199;28;20041;-72
2022/06/20 01:03:28;;;;;;;6.65;1.92;;;17.20;97.70;;;;;;5030786;28;20048;-73
2022/06/20 01:06:02;;;;;;;4.38;1.75;;;17.20;98.10;;;;;;5030482;28;20041;-73
2022/06/20 01:08:32;;;;;;;8.05;1.88;;;17.30;97.80;;;;;;5030268;28;20042;-73
2022/06/20 01:11:22;;;;;;;4.07;1.73;;;17.20;98.00;;;;;;5030267;28;20033;-73
2022/06/20 01:13:50;;;;;;;5.95;1.88;;;17.30;97.80;;;;;;5030236;28;20336;-74
2022/06/20 01:16:26;;;;;;;6.63;1.80;;;17.30;97.90;;;;;;5031087;28;20021;-73
2022/06/20 01:18:54;;;;;;;6.55;1.83;;;17.20;97.60;;;;;;5034977;28;20022;-73
2022/06/20 01:21:27;;;;;;;6.03;2.22;;;17.20;97.70;;;;;;5034563;28;20037;-74
2022/06/20 01:24:21;;;;;;;7.13;2.13;;;17.20;97.40;;;;;;5034163;28;20075;-75
2022/06/20 01:27:14;;;;;;;4.30;1.75;;;17.10;97.50;;;;;;5033274;28;20025;-74
2022/06/20 01:29:40;;;;;;;6.40;2.17;;;17.00;97.80;;;;;;5034091;28;20483;-73
2022/06/20 01:32:06;;;;;;;6.60;1.98;;;17.10;98.00;;;;;;5034362;28;20033;-74
2022/06/20 01:34:32;;;;;;;4.57;2.22;;;17.10;98.00;;;;;;5033993;28;20041;-73
2022/06/20 01:37:29;;;;;;;6.57;2.70;;;17.00;97.70;;;;;;5015086;28;20385;-73
2022/06/20 01:40:12;;;;;;;5.82;2.60;;;17.00;98.10;;;;;;5014634;28;20029;-74
2022/06/20 01:42:39;;;;;;;6.65;2.22;;;17.00;98.10;;;;;;5014773;28;20128;-73
2022/06/20 01:48:21;;;;;;;5.55;2.95;;;17.10;98.10;;;;;;5011872;28;20041;-74
2022/06/20 01:50:47;;;;;;;4.30;1.92;;;17.10;97.70;;;;;;5013626;28;20476;-74
2022/06/20 01:53:17;;;;;;;4.40;2.33;;;17.10;97.60;;;;;;5014600;28;20034;-74
2022/06/20 01:55:45;;;;;;;7.55;2.28;;;17.00;97.60;;;;;;5014050;28;20460;-74
2022/06/20 01:58:16;;;;;;;4.82;1.88;;;17.00;97.90;;;;;;5013927;28;20064;-75
2022/06/20 02:00:42;;;;;;;6.80;2.25;;;17.00;97.90;;;;;;5014319;28;20022;-74
2022/06/20 02:03:12;;;;;;;7.72;1.90;;;17.00;98.20;;;;;;5014002;28;20030;-75
2022/06/20 02:05:38;;;;;;;4.15;1.85;;;17.00;98.20;;;;;;5013901;28;20038;-74
2022/06/20 02:08:06;;;;;;;6.35;2.00;;;17.00;98.10;;;;;;5014348;28;20392;-74
2022/06/20 02:10:53;;;;;;;8.10;2.60;;;17.10;98.00;;;;;;5014149;28;20349;-74
2022/06/20 02:13:21;;;;;;;5.30;2.10;;;17.10;98.30;;;;;;5013676;28;20034;-74
2022/06/20 02:15:50;;;;;;;6.53;2.78;;;17.00;98.50;;;;;;5014066;28;20022;-74
2022/06/20 02:18:17;;;;;;;7.50;2.53;;;16.70;98.70;;;;;;5013927;28;20507;-74
2022/06/20 02:20:47;;;;;;;7.83;2.40;;;16.60;98.70;;;;;;5012429;28;20125;-74
2022/06/20 02:23:20;;;;;;;4.43;2.13;;;16.80;99.00;;;;;;5013607;28;20255;-74
2022/06/20 02:25:49;;;;;;;7.25;2.78;;;16.80;98.90;;;;;;5013519;28;20089;-74
2022/06/20 02:28:31;;;;;;;8.15;2.47;;;16.90;98.80;;;;;;5013355;28;20036;-73
2022/06/20 02:30:57;;;;;;;8.13;2.60;;;16.90;98.90;;;;;;5014051;28;20026;-74
2022/06/20 02:33:28;;;;;;;7.75;2.70;;;16.90;98.70;;;;;;5013647;28;20068;-73
2022/06/20 02:35:56;;;;;;;6.90;2.38;;;16.80;98.80;;;;;;5013194;28;20125;-75
2022/06/20 02:38:23;;;;;;;5.75;2.38;;;16.80;99.10;;;;;;5013573;28;20145;-73
2022/06/20 02:40:49;;;;;;;6.90;2.20;;;16.80;99.00;;;;;;5013126;28;20518;-74
2022/06/20 02:43:21;;;;;;;4.78;2.10;;;16.80;99.50;;;;;;5013386;28;20428;-74
2022/06/20 02:45:47;;;;;;;9.13;2.65;;;16.70;99.00;;;;;;5012655;28;20022;-73
2022/06/20 02:48:15;;;;;;;10.55;2.40;;;16.80;98.80;;;;;;5012954;28;20034;-73
2022/06/20 02:50:48;;;;;;;6.18;2.28;;;16.80;98.90;;;;;;5011956;28;20029;-73
2022/06/20 02:53:20;;;;;;;2.92;1.80;;;16.70;99.00;;;;;;5012766;28;20120;-74
2022/06/20 02:55:47;;;;;;;5.75;2.22;;;16.70;98.70;;;;;;5012954;28;20080;-75
2022/06/20 02:58:19;;;;;;;3.72;1.65;;;16.80;98.70;;;;;;5013157;28;20088;-73
2022/06/20 03:00:52;;;;;;;8.65;2.22;;;16.70;98.80;;;;;;5012259;28;20087;-74
2022/06/20 03:03:33;;;;;;;7.50;1.98;;;16.70;98.70;;;;;;5011608;28;20030;-73
2022/06/20 03:06:00;;;;;;;8.32;2.22;;;16.60;99.00;;;;;;5011544;28;20048;-73
2022/06/20 03:08:26;;;;;;;4.25;1.48;;;16.50;99.00;;;;;;5011552;28;20380;-74
2022/06/20 03:10:53;;;;;;;6.75;1.55;;;16.60;98.70;;;;;;5012644;28;20030;-73
2022/06/20 03:13:21;;;;;;;6.20;1.85;;;16.70;98.90;;;;;;5012434;28;20422;-73
2022/06/20 03:15:48;;;;;;;9.32;1.95;;;16.70;98.70;;;;;;5012881;28;20026;-73
2022/06/20 03:18:19;;;;;;;7.63;2.00;;;16.70;98.40;;;;;;5012416;28;20034;-74
2022/06/20 03:20:46;;;;;;;10.07;2.42;;;16.70;98.10;;;;;;5012372;28;20030;-74
2022/06/20 03:23:21;;;;;;;7.40;1.85;;;16.60;98.10;;;;;;5012369;28;20105;-74
2022/06/20 03:25:47;;;;;;;10.30;2.20;;;16.40;98.60;;;;;;5012309;28;20034;-74
2022/06/20 03:28:16;;;;;;;9.13;1.90;;;16.40;99.00;;;;;;5012211;28;20461;-73
2022/06/20 03:30:42;;;;;;;8.27;2.10;;;16.30;98.90;;;;;;5011512;28;20064;-74
2022/06/20 03:33:13;;;;;;;7.10;2.03;;;16.30;99.00;;;;;;5012045;28;20081;-74
2022/06/20 03:35:42;;;;;;;4.05;2.13;;;16.30;98.80;;;;;;5012265;28;20046;-75
2022/06/20 03:38:11;;;;;;;5.15;1.80;;;16.30;98.80;;;;;;5012139;28;20089;-74
2022/06/20 03:40:39;;;;;;;9.73;2.40;;;16.20;98.70;;;;;;5010277;28;20061;-73
2022/06/20 03:43:06;;;;;;;;;;;16.30;99.00;;;;;;5012345;28;20030;-73
2022/06/20 03:45:34;;;;;;;7.75;1.88;;;16.40;98.90;;;;;;5012878;28;19909;-73
2022/06/20 03:48:11;;;;;;;5.80;2.13;;;16.30;98.80;;;;;;5012112;28;20053;-74
2022/06/20 03:50:54;;;;;;;11.20;2.17;;;16.20;98.60;;;;;;5010567;28;20037;-74
2022/06/20 03:54:08;;;;;;;4.97;1.85;;;16.20;99.20;;;;;;5010729;28;20041;-74
2022/06/20 03:56:56;;;;;;;6.57;1.65;;;16.10;98.90;;;;;;5011171;28;20022;-74
2022/06/20 03:59:32;;;;;;;8.70;2.13;;;16.00;98.90;;;;;;5011491;28;20030;-73
2022/06/20 04:02:10;;;;;;;7.45;1.85;;;16.00;99.00;;;;;;5011757;28;20026;-74
2022/06/20 04:04:41;;;;;;;7.45;2.00;;;16.10;99.30;;;;;;5011468;28;20034;-74
2022/06/20 04:07:13;;;;;;;10.32;2.65;;;16.30;99.00;;;;;;5011633;28;20053;-74
2022/06/20 04:13:00;;;;;;;9.35;2.22;;;16.40;99.00;;;;;;5011442;28;20383;-73
2022/06/20 04:15:35;;;;;;;9.27;2.00;;;16.40;99.20;;;;;;5011468;28;20349;-73
2022/06/20 04:18:33;;;;;;;4.85;1.85;;;16.50;99.10;;;;;;5011287;28;20068;-73
2022/06/20 04:21:02;;;;;;;;;;;16.50;99.10;;;;;;5011574;28;20111;-73
2022/06/20 04:23:39;;;;;;;6.05;2.22;;;16.50;99.20;;;;;;5010342;28;19909;-73
2022/06/20 04:26:25;;;;;;;7.53;2.25;;;16.60;99.70;;;;;;5010985;28;20125;-75
2022/06/20 04:29:04;;;;;;;10.65;2.75;;;16.60;99.00;;;;;;5011040;28;20550;-74
2022/06/20 04:31:53;;;;;;;8.40;2.50;;;16.60;98.90;;;;;;5009827;28;20034;-74
2022/06/20 04:34:24;;;;;;;6.38;2.28;;;16.60;98.90;;;;;;5010949;28;20376;-74
2022/06/20 04:37:03;;;;;;;8.48;2.15;;;16.60;99.40;;;;;;5011430;28;20030;-74
2022/06/20 04:39:39;;;;;;;8.63;2.15;;;16.60;99.40;;;;;;5011173;28;20074;-74
2022/06/20 04:42:17;;;;;;;7.68;2.92;;;16.60;99.50;;;;;;5010003;28;20045;-75
2022/06/20 04:44:57;;;;;;;6.20;2.10;;;16.50;99.90;;;;;;5009608;28;20030;-73
2022/06/20 04:47:44;;;;;;;8.73;2.40;;;16.50;99.90;;;;;;5009601;28;20379;-74
2022/06/20 04:50:16;;;;;;;7.73;2.47;;;16.50;99.80;;;;;;5010510;28;20127;-73
2022/06/20 04:52:42;;;;;;;8.35;2.40;;;16.50;99.40;;;;;;5010332;28;20025;-73
2022/06/20 04:55:17;;;;;;;14.20;3.00;;;16.30;99.80;;;;;;5010790;28;20025;-74
2022/06/20 04:57:42;;;;;;;7.47;2.58;;;16.20;99.70;;;;;;5010847;28;20041;-74
2022/06/20 05:00:17;;;;;;;9.75;2.72;;;16.20;99.90;;;;;;5010589;28;20385;-74
2022/06/20 05:02:42;;;;;;;7.50;2.63;;;16.20;99.50;;;;;;5010592;28;20034;-74
2022/06/20 05:05:15;;;;;;;12.27;3.40;;;16.10;99.80;;;;;;5010483;28;20549;-74
2022/06/20 05:07:41;;;;;;;7.10;2.53;;;16.00;99.80;;;;;;5010681;28;20176;-75
2022/06/20 05:10:13;;;;;;;12.98;2.38;;;16.00;99.90;;;;;;5010322;28;20115;-74
2022/06/20 05:12:46;;;;;;;11.35;2.42;;;16.10;99.90;;;;;;5010836;28;20037;-74
2022/06/20 05:15:29;;;;;;;7.45;2.38;;;15.90;99.90;;;;;;5010465;28;20037;-75
2022/06/20 05:17:59;;;;;;;7.05;2.70;;;16.00;99.90;;;;;;5010291;28;20033;-75
2022/06/20 05:20:35;;;;;;;9.70;2.55;;;15.90;99.90;;;;;;5010168;28;20199;-73
2022/06/20 05:23:11;;;;;;;9.65;2.88;;;16.00;99.60;;;;;;5010331;28;20441;-74
2022/06/20 05:25:37;;;;;;;7.85;2.53;;;16.00;99.60;;;;;;5010004;28;20124;-74
2022/06/20 05:28:17;;;;;;;7.22;2.63;;;16.00;99.90;;;;;;5010045;28;20437;-76
2022/06/20 05:30:44;;;;;;;7.95;2.72;;;16.00;99.80;;;;;;5011064;28;20084;-77
2022/06/20 05:33:19;;;;;;;9.52;2.85;;;16.00;99.60;;;;;;5010140;28;20419;-77
2022/06/20 05:36:22;;;;;;;10.73;2.28;;;16.00;99.50;;;;;;5010142;28;20424;-80
2022/06/20 05:38:57;;;;;;;7.03;2.03;;;15.90;99.50;;;;;;5010165;28;20041;-74
2022/06/20 05:41:45;;;;;;;7.22;2.08;;;16.00;99.70;;;;;;5008718;28;20049;-75
2022/06/20 05:44:13;;;;;;;10.18;2.40;;;16.00;99.40;;;;;;5009932;28;20555;-74
2022/06/20 05:46:50;;;;;;;12.70;2.50;;;16.10;99.20;;;;;;5010146;28;20041;-75
2022/06/20 05:49:25;;;;;;;10.30;2.40;;;16.10;99.00;;;;;;5008971;28;20380;-73
2022/06/20 05:51:52;;;;;;;9.70;2.60;;;16.20;98.90;;;;;;5010370;28;20427;-77
2022/06/20 05:54:23;;;;;;;12.68;2.65;;;16.20;99.00;;;;;;5010027;28;20037;-76
2022/06/20 05:57:08;;;;;;;12.57;3.63;;;16.20;98.70;;;;;;5010000;28;20030;-76
2022/06/20 05:59:44;;;;;;;9.57;2.20;;;16.20;99.10;;;;;;5008622;28;20056;-75
2022/06/20 06:02:21;;;;;;;15.95;2.78;;;16.20;99.20;;;;;;5009636;28;20413;-74
2022/06/20 06:04:53;;;;;;;9.68;2.00;;;16.20;99.00;;;;;;5013446;28;20141;-75
2022/06/20 06:07:38;;;;;;;11.63;3.70;;;16.10;98.90;;;;;;5013875;28;20441;-77
2022/06/20 06:10:10;;;;;;;19.13;3.17;;;16.10;99.00;;;;;;5013449;28;20041;-75
2022/06/20 06:12:42;;;;;;;8.10;2.42;;;16.10;99.40;;;;;;5013857;28;20123;-74
2022/06/20 06:15:23;;;;;;;7.18;1.75;;;16.10;99.20;;;;;;5013254;28;20034;-72
2022/06/20 06:17:54;;;;;;;8.30;2.22;;;15.90;98.50;;;;;;5013350;28;20113;-73
2022/06/20 06:20:23;;;;;;;13.13;2.78;;;16.20;99.30;;;;;;5013300;28;20160;-73
2022/06/20 06:22:54;;;;;;;10.38;2.55;;;16.20;99.00;;;;;;5013458;28;20057;-73
2022/06/20 06:25:24;;;;;;;8.45;2.20;;;16.20;99.00;;;;;;5013531;28;20041;-72
2022/06/20 06:27:54;;;;;;;13.27;2.60;;;16.30;99.20;;;;;;5015148;28;20041;-72
2022/06/20 06:30:25;;;;;;;12.05;2.65;;;16.20;98.90;;;;;;5013801;28;20044;-72
2022/06/20 06:33:11;;;;;;;9.45;2.72;;;16.20;99.20;;;;;;5012398;28;20053;-73
2022/06/20 06:35:48;;;;;;;9.98;2.70;;;16.10;98.80;;;;;;5014737;28;20456;-73
2022/06/20 06:38:32;;;;;;;10.80;2.75;;;16.00;98.60;;;;;;5013738;28;20048;-74
2022/06/20 06:41:01;;;;;;;17.15;5.38;;;16.00;98.90;;;;;;5015152;28;20189;-73
2022/06/20 06:43:38;;;;;;;12.77;2.90;;;16.10;99.20;;;;;;5012518;28;20026;-75
2022/06/20 06:46:27;;;;;;;10.27;2.35;;;16.20;98.90;;;;;;5017831;28;20037;-76
2022/06/20 06:49:16;;;;;;;13.23;2.90;;;16.10;98.90;;;;;;5012988;28;20491;-70
2022/06/20 06:52:06;;;;;;;14.90;3.00;;;16.10;98.50;;;;;;4998237;28;20128;-72
2022/06/20 06:54:41;;;;;;;13.82;2.83;;;16.10;98.60;;;;;;5012924;28;20069;-73
2022/06/20 06:57:25;;;;;;;11.73;2.85;;;15.90;98.80;;;;;;5012633;28;20030;-72
2022/06/20 07:00:03;;;;;;;12.80;3.55;;;16.10;98.70;;;;;;5012810;28;20029;-72
2022/06/20 07:02:29;;;;;;;;;;;16.20;98.80;;;;;;5011962;28;20041;-71
2022/06/20 07:05:04;;;;;;;7.40;1.70;;;16.20;98.60;;;;;;5012588;28;19983;-71
2022/06/20 07:07:46;;;;;;;6.63;2.25;;;16.20;98.20;;;;;;5011718;28;20041;-73
2022/06/20 07:10:21;;;;;;;14.50;2.10;;;16.10;98.40;;;;;;5011363;28;20113;-72
2022/06/20 07:12:51;;;;;;;9.35;2.20;;;16.20;98.60;;;;;;5012832;28;20017;-72
2022/06/20 07:15:22;;;;;;;13.85;2.42;;;16.20;98.70;;;;;;5011378;28;20030;-72
2022/06/20 07:17:55;;;;;;;8.75;2.35;;;16.20;98.40;;;;;;5014844;28;20459;-73
2022/06/20 07:20:27;;;;;;;10.10;1.90;;;16.20;98.50;;;;;;5011156;28;20483;-76
2022/06/20 07:22:53;;;;;;;10.93;2.08;;;16.20;98.10;;;;;;5012239;28;20026;-72
2022/06/20 07:25:27;;;;;;;15.90;2.50;;;16.40;98.50;;;;;;5010785;28;20056;-73
2022/06/20 07:28:29;;;;;;;13.85;1.80;;;16.40;98.00;;;;;;5012530;28;20037;-73
2022/06/20 07:31:22;;;;;;;10.57;2.03;;;16.50;98.20;;;;;;5011485;28;20048;-73
2022/06/20 07:34:17;;;;;;;7.65;1.92;;;16.50;98.10;;;;;;5012043;28;20095;-73
2022/06/20 07:36:51;;;;;;;9.40;2.13;;;16.60;97.80;;;;;;5010264;28;20050;-74
2022/06/20 07:39:56;;;;;;;9.82;2.00;;;16.60;97.70;;;;;;5010793;28;20038;-73
2022/06/20 07:42:36;;;;;;;9.57;1.92;;;16.60;97.80;;;;;;5007703;28;20449;-72
2022/06/20 07:45:11;;;;;;;11.02;2.50;;;16.70;97.80;;;;;;5010712;28;20037;-73
2022/06/20 07:47:51;;;;;;;10.00;2.80;;;16.60;97.70;;;;;;5011969;28;20022;-73
2022/06/20 07:51:25;;;;;;;8.77;2.08;;;16.70;97.70;;;;;;5011765;28;20065;-71
2022/06/20 07:53:59;;;;;;;11.00;2.35;;;17.00;97.60;;;;;;5002037;28;20115;-72
2022/06/20 07:56:35;;;;;;;7.70;2.80;;;17.20;97.50;;;;;;5011469;28;20472;-74
2022/06/20 07:59:09;;;;;;;7.40;2.38;;;17.30;97.60;;;;;;5011682;28;20076;-73
2022/06/20 08:01:39;;;;;;;17.05;2.65;;;17.40;97.70;;;;;;5011513;28;20201;-72
2022/06/20 08:04:09;;;;;;;7.40;1.60;;;17.40;96.90;;;;;;5011376;28;20432;-73
2022/06/20 08:06:47;;;;;;;6.60;2.20;;;17.40;96.80;;;;;;5011021;28;20034;-73
2022/06/20 08:09:39;;;;;;;11.85;2.30;;;17.50;96.40;;;;;;5011668;28;20389;-71
2022/06/20 08:12:13;;;;;;;12.27;2.78;;;17.40;96.10;;;;;;5011225;28;20357;-72
2022/06/20 08:14:53;;;;;;;11.02;2.55;;;17.40;95.90;;;;;;5011410;28;20122;-74
2022/06/20 08:17:20;;;;;;;8.60;3.33;;;17.30;96.20;;;;;;5010114;28;20038;-73
2022/06/20 08:19:46;;;;;;;13.48;2.85;;;17.40;96.30;;;;;;5010461;28;20357;-73
2022/06/20 08:22:28;;;;;;;7.55;2.80;;;17.50;95.90;;;;;;5011090;28;20161;-72
2022/06/20 08:24:57;;;;;;;13.82;2.97;;;17.50;95.80;;;;;;5010394;28;20033;-73
2022/06/20 08:27:55;;;;;;;14.13;3.08;;;17.50;95.70;;;;;;5011578;28;20053;-74
2022/06/20 08:30:48;;;;;;;14.07;2.92;;;17.50;95.50;;;;;;5009864;28;20375;-73
2022/06/20 08:33:21;;;;;;;11.65;3.00;;;17.60;94.90;;;;;;5010881;28;20054;-73
2022/06/20 08:36:00;;;;;;;8.63;2.60;;;17.60;94.70;;;;;;5009916;28;20403;-72
2022/06/20 08:38:47;;;;;;;9.10;2.30;;;17.60;94.80;;;;;;5011076;28;20038;-75
2022/06/20 08:41:48;;;;;;;14.95;2.03;;;17.70;94.70;;;;;;5010921;28;20184;-72
2022/06/20 08:45:01;;;;;;;16.35;2.30;;;17.70;94.30;;;;;;5008370;28;20034;-74
2022/06/20 08:47:45;;;;;;;9.35;1.88;;;17.60;94.10;;;;;;4969681;28;20134;-74
2022/06/20 08:50:35;;;;;;;14.68;2.47;;;17.60;94.20;;;;;;5010913;28;20479;-74
2022/06/20 08:53:10;;;;;;;9.23;2.05;;;17.50;94.00;;;;;;5010808;28;20044;-75
2022/06/20 08:55:56;;;;;;;7.90;1.75;;;17.50;93.80;;;;;;5009674;28;20030;-72
2022/06/20 08:58:46;;;;;;;7.65;1.55;;;17.60;93.40;;;;;;5010774;28;20034;-74
2022/06/20 09:01:45;;;;;;;9.38;2.22;;;17.80;92.80;;;;;;5010719;28;20022;-72
2022/06/20 09:04:30;;;;;;;9.90;2.53;;;17.70;92.90;;;;;;5010605;28;20064;-72
2022/06/20 09:07:10;;;;;;;15.13;2.47;;;17.90;93.20;;;;;;5011145;28;20455;-72
2022/06/20 09:09:42;;;;;;;8.38;1.80;;;18.10;92.80;;;;;;5010785;28;20053;-73
2022/06/20 09:12:46;;;;;;;9.57;1.70;;;18.10;92.30;;;;;;5010393;28;20026;-73
2022/06/20 09:15:33;;;;;;;5.93;1.30;;;18.20;91.80;;;;;;5010431;28;20030;-72
2022/06/20 09:18:04;;;;;;;10.20;2.42;;;18.40;91.80;;;;;;5010452;28;20414;-72
2022/06/20 09:20:34;;;;;;;12.77;2.42;;;18.30;91.60;;;;;;5010176;28;20030;-73
2022/06/20 09:23:31;;;;;;;9.13;2.00;;;18.40;91.80;;;;;;5010430;28;20058;-72
2022/06/20 09:26:27;;;;;;;8.07;1.95;;;18.30;91.80;;;;;;5009945;28;20030;-73
2022/06/20 09:29:08;;;;;;;11.30;2.00;;;18.20;92.00;;;;;;5010328;28;20041;-73
2022/06/20 09:32:01;;;;;;;8.63;1.52;;;18.30;92.00;;;;;;5010141;28;20464;-75
2022/06/20 09:35:21;;;;;;;6.28;1.63;;;18.40;91.80;;;;;;5010187;28;20034;-74
2022/06/20 09:38:05;;;;;;;6.43;1.90;;;18.60;91.70;;;;;;5009740;28;20134;-73
2022/06/20 09:40:42;;;;;;;10.32;2.03;;;18.80;91.70;;;;;;5014057;28;20101;-73
2022/06/20 09:43:33;;;;;;;9.68;1.70;;;18.50;91.20;;;;;;5013945;28;20092;-74
2022/06/20 09:46:05;;;;;;;8.38;1.85;;;18.40;91.50;;;;;;5014097;28;20029;-75
2022/06/20 09:48:52;;;;;;;9.43;1.70;;;18.40;91.20;;;;;;5014548;28;20018;-75
2022/06/20 09:51:47;;;;;;;10.50;2.65;;;18.00;91.10;;;;;;5013955;28;20030;-77
2022/06/20 09:54:22;;;;;;;6.25;1.35;;;18.30;91.40;;;;;;5013819;28;20058;-74
2022/06/20 09:56:56;;;;;;;7.55;1.73;;;18.50;91.00;;;;;;5013412;28;20133;-74
2022/06/20 09:59:34;;;;;;;9.35;2.05;;;18.60;90.90;;;;;;5012701;28;20041;-74
2022/06/20 10:02:33;;;;;;;6.28;1.45;;;18.90;90.60;;;;;;5012714;28;20053;-74
2022/06/20 10:05:17;;;;;;;10.85;2.03;;;19.20;89.00;;;;;;5013694;28;20450;-73
2022/06/20 10:08:15;;;;;;;8.40;1.80;;;19.30;88.30;;;;;;5013977;28;20029;-73
2022/06/20 10:10:55;;;;;;;9.98;1.85;;;19.50;88.20;;;;;;5011976;28;20026;-73
2022/06/20 10:13:44;;;;;;;6.00;1.60;;;19.60;87.40;;;;;;5013770;28;20026;-74
2022/06/20 10:16:41;;;;;;;8.48;2.22;;;19.50;87.50;;;;;;5013510;28;20445;-72
2022/06/20 10:19:25;;;;;;;7.20;1.73;;;19.40;87.40;;;;;;5013433;28;20026;-72
2022/06/20 10:22:11;;;;;;;11.13;3.58;;;19.40;87.00;;;;;;5013772;28;20053;-73
2022/06/20 10:24:55;;;;;;;11.48;2.55;;;19.70;86.80;;;;;;5013268;28;20045;-76
2022/06/20 10:27:34;;;;;;;7.70;2.22;;;20.00;86.20;;;;;;5013341;28;20026;-73
2022/06/20 10:30:13;;;;;;;9.05;1.63;;;20.20;86.00;;;;;;5013511;28;20073;-75
2022/06/20 10:32:42;;;;;;;8.70;1.83;;;20.50;86.00;;;;;;5013142;28;20046;-71
2022/06/20 10:35:33;;;;;;;10.57;3.72;;;20.90;84.60;;;;;;5013308;28;20494;-72
2022/06/20 10:38:02;;;;;;;9.00;1.58;;;21.10;84.00;;;;;;5013397;28;20041;-73
2022/06/20 10:40:52;;;;;;;5.95;1.20;;;21.30;79.70;;;;;;5012998;28;20475;-71
2022/06/20 10:43:58;;;;;;;3.88;1.42;;;21.20;77.20;;;;;;5013383;28;20025;-73
2022/06/20 10:47:22;;;;;;;6.95;1.50;;;21.10;77.20;;;;;;5011952;28;20051;-73
2022/06/20 10:50:12;;;;;;;6.65;1.30;;;20.60;75.90;;;;;;5009440;28;20030;-75
2022/06/20 10:52:51;;;;;;;5.43;1.15;;;20.70;76.60;;;;;;5010573;28;20033;-75
2022/06/20 10:55:23;;;;;;;5.53;1.52;;;20.60;76.40;;;;;;5012515;28;20045;-75
2022/06/20 10:58:05;;;;;;;6.18;1.48;;;20.40;75.10;;;;;;5013436;28;20018;-75
2022/06/20 11:00:37;;;;;;;4.57;1.38;;;20.40;75.60;;;;;;5012725;28;20058;-75
2022/06/20 11:03:33;;;;;;;2.53;1.10;;;20.30;74.80;;;;;;5012794;28;20468;-76
2022/06/20 11:06:37;;;;;;;3.80;1.00;;;20.10;72.80;;;;;;5012791;28;20038;-74
2022/06/20 11:09:21;;;;;;;4.40;0.98;;;20.10;72.30;;;;;;5012670;28;20034;-74
2022/06/20 11:12:09;;;;;;;4.18;1.95;;;20.20;72.60;;;;;;5012510;28;20030;-73
2022/06/20 11:14:49;;;;;;;5.05;2.05;;;20.40;71.60;;;;;;5012436;28;20046;-76
2022/06/20 11:17:45;;;;;;;3.90;1.00;;;20.60;71.60;;;;;;5012335;28;20041;-77
2022/06/20 11:20:24;;;;;;;4.88;1.17;;;20.80;71.50;;;;;;5011448;28;20034;-74
2022/06/20 11:23:01;;;;;;;6.35;1.15;;;21.00;70.50;;;;;;5011440;28;20049;-75
2022/06/20 11:25:46;;;;;;;4.18;1.00;;;20.80;67.50;;;;;;5012351;28;20037;-75
2022/06/20 11:28:14;;;;;;;7.82;0.98;;;20.80;68.10;;;;;;5012268;28;20029;-73
2022/06/20 11:30:58;;;;;;;4.80;1.15;;;21.10;67.00;;;;;;5012717;28;20022;-77
2022/06/20 11:34:00;;;;;;;1.58;0.90;;;20.80;66.00;;;;;;5012166;28;20129;-76
2022/06/20 11:36:59;;;;;;;5.90;1.55;;;21.10;66.20;;;;;;5011739;28;20115;-74
2022/06/20 11:39:59;;;;;;;6.90;1.17;;;21.20;66.40;;;;;;5010779;28;20121;-75
2022/06/20 11:42:55;;;;;;;6.53;1.20;;;21.00;65.80;;;;;;5011957;28;20061;-72
2022/06/20 11:45:47;;;;;;;4.50;1.20;;;21.00;67.10;;;;;;5010699;28;20048;-73
2022/06/20 11:48:28;;;;;;;5.35;1.10;;;21.00;67.00;;;;;;5011607;28;20037;-76
2022/06/20 11:51:41;;;;;;;4.07;1.35;;;21.10;66.10;;;;;;5010672;28;20026;-74
2022/06/20 11:54:19;;;;;;;7.95;1.40;;;21.40;65.70;;;;;;5011596;28;20145;-73
2022/06/20 11:56:48;;;;;;;;;;;21.40;65.60;;;;;;5012281;28;20420;-75
2022/06/20 11:59:19;;;;;;;7.07;1.23;;;21.50;64.80;;;;;;5011606;28;19913;-73
2022/06/20 12:01:56;;;;;;;2.17;1.23;;;21.60;65.20;;;;;;5011029;28;20490;-74
2022/06/20 12:04:38;;;;;;;5.45;2.17;;;21.60;64.60;;;;;;5010406;28;20452;-73
2022/06/20 12:07:14;;;;;;;4.75;1.52;;;21.80;65.40;;;;;;5011745;28;20030;-73
2022/06/20 12:09:42;;;;;;;6.25;1.30;;;21.80;64.50;;;;;;5012117;28;20041;-72
2022/06/20 12:12:27;;;;;;;4.20;1.35;;;21.40;64.20;;;;;;5011762;28;20463;-72
2022/06/20 12:15:21;;;;;;;5.50;1.23;;;21.30;64.40;;;;;;5010424;28;20034;-72
2022/06/20 12:18:16;;;;;;;7.25;1.75;;;20.90;64.70;;;;;;5011433;28;20086;-71
2022/06/20 12:23:36;;;;;;;5.22;1.40;;;21.20;64.70;;;;;;5011372;28;20041;-71
2022/06/20 12:26:42;;;;;;;5.95;1.67;;;21.20;65.00;;;;;;5011300;28;20041;-73
2022/06/20 12:29:22;;;;;;;5.55;1.95;;;21.40;65.00;;;;;;5011172;28;20121;-72
2022/06/20 12:31:53;;;;;;;6.00;1.45;;;21.60;65.50;;;;;;5011464;28;20041;-71
2022/06/20 12:34:49;;;;;;;4.35;1.58;;;21.90;64.60;;;;;;5011217;28;20069;-72
2022/06/20 12:37:35;;;;;;;3.92;1.48;;;21.90;63.80;;;;;;5010503;28;20038;-73
2022/06/20 12:40:42;;;;;;;9.27;2.22;;;21.60;63.20;;;;;;5010909;28;20033;-74
2022/06/20 12:43:16;;;;;;;;;;;21.50;63.90;;;;;;5009050;28;20368;-73
2022/06/20 12:49:45;;;;;;;5.35;1.77;;;21.50;65.00;;;;;;5011184;28;20044;-74
2022/06/20 12:52:27;;;;;;;4.43;1.80;;;21.40;63.70;;;;;;5009815;28;20117;-74
2022/06/20 12:55:19;;;;;;;4.90;1.52;;;21.40;64.10;;;;;;5012380;28;20018;-76
2022/06/20 12:57:51;;;;;;;7.30;1.88;;;21.30;64.10;;;;;;5012173;28;20037;-77
2022/06/20 13:00:41;;;;;;;8.50;2.20;;;21.40;63.90;;;;;;5010901;28;20742;-74
2022/06/20 13:03:19;;;;;;;7.38;1.65;;;21.40;63.70;;;;;;5011053;28;20030;-76
2022/06/20 13:09:21;;;;;;;9.18;2.25;;;21.30;61.70;;;;;;5010807;28;20036;-74
2022/06/20 13:12:20;;;;;;;6.95;1.92;;;21.30;61.90;;;;;;5009900;28;20033;-75
2022/06/20 13:15:20;;;;;;;4.07;1.95;;;21.40;62.30;;;;;;5010497;28;20483;-75
2022/06/20 13:18:28;;;;;;;5.60;1.73;;;21.40;62.30;;;;;;5011135;28;20042;-74
2022/06/20 13:20:54;;;;;;;4.05;1.75;;;21.30;61.90;;;;;;5009815;28;20044;-75
2022/06/20 13:23:47;;;;;;;8.13;1.92;;;21.40;62.00;;;;;;5010551;28;20406;-75
2022/06/20 13:29:40;;;;;;;5.47;1.95;;;21.30;61.30;;;;;;5010493;28;20049;-77
2022/06/20 13:32:30;;;;;;;7.57;1.60;;;21.40;62.00;;;;;;5010473;28;20041;-76
2022/06/20 13:35:05;;;;;;;3.92;1.30;;;21.40;62.10;;;;;;5010434;28;20124;-75
2022/06/20 13:37:52;;;;;;;11.48;2.45;;;21.40;62.40;;;;;;5010606;28;20057;-76
2022/06/20 13:40:21;;;;;;;;;;;21.40;63.00;;;;;;5009874;28;20084;-76
2022/06/20 13:43:17;;;;;;;10.80;3.00;;;21.50;63.50;;;;;;5011271;28;20262;-76
2022/06/20 13:46:24;;;;;;;5.88;2.10;;;21.70;64.30;;;;;;5010635;28;20092;-76
2022/06/20 13:49:29;;;;;;;8.57;1.65;;;21.70;63.50;;;;;;5009443;28;20100;-75
2022/06/20 13:52:26;;;;;;;9.60;1.80;;;21.60;63.30;;;;;;5008214;28;20034;-75
2022/06/20 13:55:15;;;;;;;5.40;1.70;;;21.60;63.40;;;;;;5009882;28;20212;-75
2022/06/20 13:58:12;;;;;;;6.90;1.90;;;21.50;63.40;;;;;;5010799;28;20038;-75
2022/06/20 14:00:38;;;;;;;4.07;1.80;;;21.60;63.60;;;;;;5009244;28;20038;-75
2022/06/20 14:03:29;;;;;;;6.22;1.50;;;21.60;63.70;;;;;;5010282;28;20472;-74
2022/06/20 14:06:11;;;;;;;3.78;1.42;;;21.50;63.70;;;;;;5009895;28;20357;-75